sensor_id;sensor_type;location;lat;lon;timestamp;P1;durP1;ratioP1;P2;durP2;ratioP2
32639;SDS011;19049;52.524;11.468;2022-08-02T00:01:00;1.17;;;0.80;;
32639;SDS011;19049;52.524;11.468;2022-08-02T00:03:25;0.90;;;0.80;;
32639;SDS011;19049;52.524;11.468;2022-08-02T00:05:53;2.57;;;1.00;;
32639;SDS011;19049;52.524;11.468;2022-08-02T00:08:19;1.80;;;0.90;;
32639;SDS011;19049;52.524;11.468;2022-08-02T00:10:45;1.33;;;0.90;;
32639;SDS011;19049;52.524;11.468;2022-08-02T00:13:11;1.67;;;1.00;;
32639;SDS011;19049;52.524;11.468;2022-08-02T00:15:36;2.20;;;1.17;;
32639;SDS011;19049;52.524;11.468;2022-08-02T00:18:02;3.73;;;1.10;;
32639;SDS011;19049;52.524;11.468;2022-08-02T00:20:28;2.23;;;1.07;;
32639;SDS011;19049;52.524;11.468;2022-08-02T00:22:53;2.67;;;0.77;;
32639;SDS011;19049;52.524;11.468;2022-08-02T00:25:19;2.13;;;0.87;;
32639;SDS011;19049;52.524;11.468;2022-08-02T00:27:47;2.13;;;1.00;;
32639;SDS011;19049;52.524;11.468;2022-08-02T00:30:15;3.03;;;1.60;;
32639;SDS011;19049;52.524;11.468;2022-08-02T00:32:43;2.37;;;1.27;;
32639;SDS011;19049;52.524;11.468;2022-08-02T00:35:09;1.67;;;0.93;;
32639;SDS011;19049;52.524;11.468;2022-08-02T00:37:46;1.70;;;0.90;;
32639;SDS011;19049;52.524;11.468;2022-08-02T00:40:12;1.40;;;1.10;;
32639;SDS011;19049;52.524;11.468;2022-08-02T00:42:45;1.47;;;0.90;;
32639;SDS011;19049;52.524;11.468;2022-08-02T00:45:35;1.53;;;0.77;;
32639;SDS011;19049;52.524;11.468;2022-08-02T00:48:02;2.20;;;1.13;;
32639;SDS011;19049;52.524;11.468;2022-08-02T00:50:29;1.90;;;1.00;;
32639;SDS011;19049;52.524;11.468;2022-08-02T00:52:56;1.70;;;1.30;;
32639;SDS011;19049;52.524;11.468;2022-08-02T00:55:22;1.60;;;1.00;;
32639;SDS011;19049;52.524;11.468;2022-08-02T00:57:50;1.40;;;0.80;;
32639;SDS011;19049;52.524;11.468;2022-08-02T01:00:16;1.20;;;1.10;;
32639;SDS011;19049;52.524;11.468;2022-08-02T01:02:45;1.00;;;0.90;;
32639;SDS011;19049;52.524;11.468;2022-08-02T01:05:14;1.50;;;0.90;;
32639;SDS011;19049;52.524;11.468;2022-08-02T01:07:40;1.07;;;0.90;;
32639;SDS011;19049;52.524;11.468;2022-08-02T01:10:06;1.53;;;1.00;;
32639;SDS011;19049;52.524;11.468;2022-08-02T01:12:37;2.47;;;1.00;;
32639;SDS011;19049;52.524;11.468;2022-08-02T01:15:12;1.57;;;1.03;;
32639;SDS011;19049;52.524;11.468;2022-08-02T01:17:49;1.67;;;1.00;;
32639;SDS011;19049;52.524;11.468;2022-08-02T01:29:07;2.00;;;1.30;;
32639;SDS011;19049;52.524;11.468;2022-08-02T01:40:08;1.23;;;0.80;;
32639;SDS011;19049;52.524;11.468;2022-08-02T01:42:39;1.60;;;0.97;;
32639;SDS011;19049;52.524;11.468;2022-08-02T01:45:10;2.73;;;1.10;;
32639;SDS011;19049;52.524;11.468;2022-08-02T01:47:40;2.33;;;1.20;;
32639;SDS011;19049;52.524;11.468;2022-08-02T01:50:12;3.93;;;1.50;;
32639;SDS011;19049;52.524;11.468;2022-08-02T01:52:44;1.60;;;1.10;;
32639;SDS011;19049;52.524;11.468;2022-08-02T01:55:12;2.90;;;0.90;;
32639;SDS011;19049;52.524;11.468;2022-08-02T01:57:49;1.53;;;1.10;;
32639;SDS011;19049;52.524;11.468;2022-08-02T02:00:16;0.90;;;0.80;;
32639;SDS011;19049;52.524;11.468;2022-08-02T02:02:51;2.13;;;1.00;;
32639;SDS011;19049;52.524;11.468;2022-08-02T02:05:19;1.03;;;0.93;;
32639;SDS011;19049;52.524;11.468;2022-08-02T02:07:54;1.20;;;1.10;;
32639;SDS011;19049;52.524;11.468;2022-08-02T02:10:31;0.87;;;0.77;;
32639;SDS011;19049;52.524;11.468;2022-08-02T02:13:07;2.30;;;0.80;;
32639;SDS011;19049;52.524;11.468;2022-08-02T02:15:42;0.80;;;0.80;;
32639;SDS011;19049;52.524;11.468;2022-08-02T02:18:11;1.53;;;1.10;;
32639;SDS011;19049;52.524;11.468;2022-08-02T02:20:42;1.80;;;1.10;;
32639;SDS011;19049;52.524;11.468;2022-08-02T02:23:08;2.60;;;1.30;;
32639;SDS011;19049;52.524;11.468;2022-08-02T02:25:35;2.43;;;1.07;;
32639;SDS011;19049;52.524;11.468;2022-08-02T02:28:08;1.77;;;1.20;;
32639;SDS011;19049;52.524;11.468;2022-08-02T02:30:41;1.20;;;0.90;;
32639;SDS011;19049;52.524;11.468;2022-08-02T02:33:11;1.17;;;0.93;;
32639;SDS011;19049;52.524;11.468;2022-08-02T02:35:41;1.30;;;1.07;;
32639;SDS011;19049;52.524;11.468;2022-08-02T02:38:17;2.10;;;1.10;;
32639;SDS011;19049;52.524;11.468;2022-08-02T02:40:46;2.47;;;1.03;;
32639;SDS011;19049;52.524;11.468;2022-08-02T02:43:13;1.30;;;1.00;;
32639;SDS011;19049;52.524;11.468;2022-08-02T02:45:42;1.17;;;1.03;;
32639;SDS011;19049;52.524;11.468;2022-08-02T02:48:26;0.80;;;0.80;;
32639;SDS011;19049;52.524;11.468;2022-08-02T02:50:53;1.63;;;0.90;;
32639;SDS011;19049;52.524;11.468;2022-08-02T02:53:20;1.17;;;1.00;;
32639;SDS011;19049;52.524;11.468;2022-08-02T02:55:49;1.17;;;1.00;;
32639;SDS011;19049;52.524;11.468;2022-08-02T02:58:19;2.17;;;1.00;;
32639;SDS011;19049;52.524;11.468;2022-08-02T03:00:47;1.30;;;1.00;;
32639;SDS011;19049;52.524;11.468;2022-08-02T03:03:31;1.73;;;1.10;;
32639;SDS011;19049;52.524;11.468;2022-08-02T03:06:00;1.83;;;1.00;;
32639;SDS011;19049;52.524;11.468;2022-08-02T03:08:29;1.10;;;0.70;;
32639;SDS011;19049;52.524;11.468;2022-08-02T03:10:55;1.10;;;0.70;;
32639;SDS011;19049;52.524;11.468;2022-08-02T03:13:30;1.03;;;0.87;;
32639;SDS011;19049;52.524;11.468;2022-08-02T03:15:59;0.80;;;0.80;;
32639;SDS011;19049;52.524;11.468;2022-08-02T03:18:37;1.17;;;0.93;;
32639;SDS011;19049;52.524;11.468;2022-08-02T03:21:06;1.47;;;0.90;;
32639;SDS011;19049;52.524;11.468;2022-08-02T03:23:33;1.47;;;1.07;;
32639;SDS011;19049;52.524;11.468;2022-08-02T03:25:59;1.03;;;0.70;;
32639;SDS011;19049;52.524;11.468;2022-08-02T03:28:28;0.80;;;0.73;;
32639;SDS011;19049;52.524;11.468;2022-08-02T03:30:56;2.03;;;1.10;;
32639;SDS011;19049;52.524;11.468;2022-08-02T03:33:27;1.00;;;0.87;;
32639;SDS011;19049;52.524;11.468;2022-08-02T03:36:07;0.97;;;0.83;;
32639;SDS011;19049;52.524;11.468;2022-08-02T03:38:39;2.17;;;0.90;;
32639;SDS011;19049;52.524;11.468;2022-08-02T03:41:08;2.37;;;0.90;;
32639;SDS011;19049;52.524;11.468;2022-08-02T03:43:35;2.00;;;0.90;;
32639;SDS011;19049;52.524;11.468;2022-08-02T03:46:21;1.63;;;1.00;;
32639;SDS011;19049;52.524;11.468;2022-08-02T03:48:51;1.37;;;1.10;;
32639;SDS011;19049;52.524;11.468;2022-08-02T03:51:21;1.97;;;1.13;;
32639;SDS011;19049;52.524;11.468;2022-08-02T03:53:47;2.43;;;1.10;;
32639;SDS011;19049;52.524;11.468;2022-08-02T03:56:13;1.83;;;1.30;;
32639;SDS011;19049;52.524;11.468;2022-08-02T03:58:40;1.40;;;1.10;;
32639;SDS011;19049;52.524;11.468;2022-08-02T04:01:08;1.73;;;1.03;;
32639;SDS011;19049;52.524;11.468;2022-08-02T04:03:33;1.23;;;1.00;;
32639;SDS011;19049;52.524;11.468;2022-08-02T04:06:04;2.03;;;1.23;;
32639;SDS011;19049;52.524;11.468;2022-08-02T04:08:37;1.10;;;1.00;;
32639;SDS011;19049;52.524;11.468;2022-08-02T04:11:03;1.97;;;1.20;;
32639;SDS011;19049;52.524;11.468;2022-08-02T04:13:48;1.93;;;1.07;;
32639;SDS011;19049;52.524;11.468;2022-08-02T04:16:22;1.50;;;0.97;;
32639;SDS011;19049;52.524;11.468;2022-08-02T04:18:59;2.90;;;1.10;;
32639;SDS011;19049;52.524;11.468;2022-08-02T04:21:27;1.30;;;1.00;;
32639;SDS011;19049;52.524;11.468;2022-08-02T04:24:05;1.63;;;1.10;;
32639;SDS011;19049;52.524;11.468;2022-08-02T04:26:34;1.40;;;1.10;;
32639;SDS011;19049;52.524;11.468;2022-08-02T04:29:04;3.83;;;1.50;;
32639;SDS011;19049;52.524;11.468;2022-08-02T04:31:30;1.97;;;1.13;;
32639;SDS011;19049;52.524;11.468;2022-08-02T04:34:00;2.00;;;1.23;;
32639;SDS011;19049;52.524;11.468;2022-08-02T04:36:26;1.70;;;1.60;;
32639;SDS011;19049;52.524;11.468;2022-08-02T04:38:52;2.27;;;1.47;;
32639;SDS011;19049;52.524;11.468;2022-08-02T04:44:04;1.73;;;1.20;;
32639;SDS011;19049;52.524;11.468;2022-08-02T04:46:30;1.83;;;1.23;;
32639;SDS011;19049;52.524;11.468;2022-08-02T04:48:56;1.83;;;1.30;;
32639;SDS011;19049;52.524;11.468;2022-08-02T04:51:21;1.10;;;1.00;;
32639;SDS011;19049;52.524;11.468;2022-08-02T04:53:47;1.00;;;0.90;;
32639;SDS011;19049;52.524;11.468;2022-08-02T04:56:13;3.33;;;1.20;;
32639;SDS011;19049;52.524;11.468;2022-08-02T04:58:43;2.17;;;1.20;;
32639;SDS011;19049;52.524;11.468;2022-08-02T05:01:11;2.17;;;1.50;;
32639;SDS011;19049;52.524;11.468;2022-08-02T05:03:39;2.37;;;1.40;;
32639;SDS011;19049;52.524;11.468;2022-08-02T05:06:07;2.40;;;1.23;;
32639;SDS011;19049;52.524;11.468;2022-08-02T05:08:35;3.13;;;1.40;;
32639;SDS011;19049;52.524;11.468;2022-08-02T05:11:01;2.00;;;1.60;;
32639;SDS011;19049;52.524;11.468;2022-08-02T05:13:27;2.53;;;1.60;;
32639;SDS011;19049;52.524;11.468;2022-08-02T05:15:52;2.67;;;1.37;;
32639;SDS011;19049;52.524;11.468;2022-08-02T05:18:25;4.00;;;1.30;;
32639;SDS011;19049;52.524;11.468;2022-08-02T05:20:53;3.07;;;1.43;;
32639;SDS011;19049;52.524;11.468;2022-08-02T05:23:19;2.60;;;1.40;;
32639;SDS011;19049;52.524;11.468;2022-08-02T05:26:05;1.30;;;1.07;;
32639;SDS011;19049;52.524;11.468;2022-08-02T05:28:30;1.80;;;1.50;;
32639;SDS011;19049;52.524;11.468;2022-08-02T05:31:01;1.67;;;1.50;;
32639;SDS011;19049;52.524;11.468;2022-08-02T05:33:29;3.00;;;1.67;;
32639;SDS011;19049;52.524;11.468;2022-08-02T05:36:13;2.40;;;1.47;;
32639;SDS011;19049;52.524;11.468;2022-08-02T05:38:38;3.47;;;1.60;;
32639;SDS011;19049;52.524;11.468;2022-08-02T05:41:04;5.30;;;1.53;;
32639;SDS011;19049;52.524;11.468;2022-08-02T05:43:32;2.50;;;1.60;;
32639;SDS011;19049;52.524;11.468;2022-08-02T05:46:05;2.53;;;1.60;;
32639;SDS011;19049;52.524;11.468;2022-08-02T05:48:37;2.87;;;1.80;;
32639;SDS011;19049;52.524;11.468;2022-08-02T05:51:03;3.90;;;1.70;;
32639;SDS011;19049;52.524;11.468;2022-08-02T05:53:37;2.60;;;1.80;;
32639;SDS011;19049;52.524;11.468;2022-08-02T06:01:55;2.40;;;1.67;;
32639;SDS011;19049;52.524;11.468;2022-08-02T06:04:30;2.83;;;1.77;;
32639;SDS011;19049;52.524;11.468;2022-08-02T06:07:08;2.33;;;1.80;;
32639;SDS011;19049;52.524;11.468;2022-08-02T06:09:41;2.40;;;1.70;;
32639;SDS011;19049;52.524;11.468;2022-08-02T06:15:21;5.53;;;1.83;;
32639;SDS011;19049;52.524;11.468;2022-08-02T06:17:52;3.43;;;1.97;;
32639;SDS011;19049;52.524;11.468;2022-08-02T06:23:29;3.97;;;1.80;;
32639;SDS011;19049;52.524;11.468;2022-08-02T06:26:40;4.80;;;1.43;;
32639;SDS011;19049;52.524;11.468;2022-08-02T06:29:32;4.30;;;1.43;;
32639;SDS011;19049;52.524;11.468;2022-08-02T06:32:03;4.17;;;1.93;;
32639;SDS011;19049;52.524;11.468;2022-08-02T06:34:31;4.63;;;1.47;;
32639;SDS011;19049;52.524;11.468;2022-08-02T06:39:45;3.67;;;1.50;;
32639;SDS011;19049;52.524;11.468;2022-08-02T06:42:16;4.03;;;1.40;;
32639;SDS011;19049;52.524;11.468;2022-08-02T06:44:52;3.43;;;1.23;;
32639;SDS011;19049;52.524;11.468;2022-08-02T06:47:23;10.43;;;1.87;;
32639;SDS011;19049;52.524;11.468;2022-08-02T06:49:50;4.27;;;1.50;;
32639;SDS011;19049;52.524;11.468;2022-08-02T06:52:25;4.70;;;1.77;;
32639;SDS011;19049;52.524;11.468;2022-08-02T06:54:58;3.53;;;1.40;;
32639;SDS011;19049;52.524;11.468;2022-08-02T06:57:29;2.67;;;1.67;;
32639;SDS011;19049;52.524;11.468;2022-08-02T07:00:15;2.63;;;1.60;;
32639;SDS011;19049;52.524;11.468;2022-08-02T07:02:49;6.77;;;2.20;;
32639;SDS011;19049;52.524;11.468;2022-08-02T07:05:37;5.30;;;1.70;;
32639;SDS011;19049;52.524;11.468;2022-08-02T07:08:02;3.17;;;1.60;;
32639;SDS011;19049;52.524;11.468;2022-08-02T07:10:29;2.70;;;1.63;;
32639;SDS011;19049;52.524;11.468;2022-08-02T07:12:54;1.87;;;1.30;;
32639;SDS011;19049;52.524;11.468;2022-08-02T07:15:41;3.70;;;1.60;;
32639;SDS011;19049;52.524;11.468;2022-08-02T07:18:09;3.37;;;1.60;;
32639;SDS011;19049;52.524;11.468;2022-08-02T07:20:55;1.80;;;1.20;;
32639;SDS011;19049;52.524;11.468;2022-08-02T07:23:40;4.00;;;1.60;;
32639;SDS011;19049;52.524;11.468;2022-08-02T07:26:05;3.57;;;1.53;;
32639;SDS011;19049;52.524;11.468;2022-08-02T07:28:33;2.73;;;1.23;;
32639;SDS011;19049;52.524;11.468;2022-08-02T07:31:02;4.10;;;1.07;;
32639;SDS011;19049;52.524;11.468;2022-08-02T07:33:30;3.60;;;2.07;;
32639;SDS011;19049;52.524;11.468;2022-08-02T07:36:01;3.30;;;1.30;;
32639;SDS011;19049;52.524;11.468;2022-08-02T07:38:32;2.10;;;1.20;;
32639;SDS011;19049;52.524;11.468;2022-08-02T07:41:03;3.00;;;1.50;;
32639;SDS011;19049;52.524;11.468;2022-08-02T07:43:38;2.90;;;1.80;;
32639;SDS011;19049;52.524;11.468;2022-08-02T07:46:28;2.90;;;1.40;;
32639;SDS011;19049;52.524;11.468;2022-08-02T07:49:31;4.97;;;1.70;;
32639;SDS011;19049;52.524;11.468;2022-08-02T07:52:05;3.57;;;1.50;;
32639;SDS011;19049;52.524;11.468;2022-08-02T07:54:34;6.67;;;2.57;;
32639;SDS011;19049;52.524;11.468;2022-08-02T07:57:05;4.57;;;1.40;;
32639;SDS011;19049;52.524;11.468;2022-08-02T07:59:32;5.83;;;1.80;;
32639;SDS011;19049;52.524;11.468;2022-08-02T08:02:05;5.47;;;1.83;;
32639;SDS011;19049;52.524;11.468;2022-08-02T08:04:33;3.60;;;1.20;;
32639;SDS011;19049;52.524;11.468;2022-08-02T08:07:08;3.20;;;1.50;;
32639;SDS011;19049;52.524;11.468;2022-08-02T08:09:38;3.03;;;1.50;;
32639;SDS011;19049;52.524;11.468;2022-08-02T08:12:11;3.87;;;1.33;;
32639;SDS011;19049;52.524;11.468;2022-08-02T08:14:42;2.57;;;1.40;;
32639;SDS011;19049;52.524;11.468;2022-08-02T08:17:10;3.67;;;1.53;;
32639;SDS011;19049;52.524;11.468;2022-08-02T08:19:45;2.00;;;1.33;;
32639;SDS011;19049;52.524;11.468;2022-08-02T08:25:42;3.33;;;1.57;;
32639;SDS011;19049;52.524;11.468;2022-08-02T08:31:02;3.37;;;1.77;;
32639;SDS011;19049;52.524;11.468;2022-08-02T08:33:28;3.10;;;1.50;;
32639;SDS011;19049;52.524;11.468;2022-08-02T08:36:04;4.10;;;1.37;;
32639;SDS011;19049;52.524;11.468;2022-08-02T08:38:52;4.93;;;1.50;;
32639;SDS011;19049;52.524;11.468;2022-08-02T08:45:07;2.63;;;1.20;;
32639;SDS011;19049;52.524;11.468;2022-08-02T08:51:10;2.80;;;1.40;;
32639;SDS011;19049;52.524;11.468;2022-08-02T08:58:00;3.23;;;1.43;;
32639;SDS011;19049;52.524;11.468;2022-08-02T09:05:01;3.63;;;1.80;;
32639;SDS011;19049;52.524;11.468;2022-08-02T09:07:29;2.67;;;1.60;;
32639;SDS011;19049;52.524;11.468;2022-08-02T09:10:38;2.90;;;1.20;;
32639;SDS011;19049;52.524;11.468;2022-08-02T09:20:18;2.80;;;1.23;;
32639;SDS011;19049;52.524;11.468;2022-08-02T09:22:44;2.57;;;1.60;;
32639;SDS011;19049;52.524;11.468;2022-08-02T09:25:31;4.33;;;1.70;;
32639;SDS011;19049;52.524;11.468;2022-08-02T09:31:31;4.20;;;2.03;;
32639;SDS011;19049;52.524;11.468;2022-08-02T09:34:59;4.37;;;1.70;;
32639;SDS011;19049;52.524;11.468;2022-08-02T09:45:11;2.53;;;1.27;;
32639;SDS011;19049;52.524;11.468;2022-08-02T09:51:31;3.37;;;1.60;;
32639;SDS011;19049;52.524;11.468;2022-08-02T09:54:45;5.50;;;1.83;;
32639;SDS011;19049;52.524;11.468;2022-08-02T09:57:11;3.40;;;1.60;;
32639;SDS011;19049;52.524;11.468;2022-08-02T09:59:51;3.27;;;1.50;;
32639;SDS011;19049;52.524;11.468;2022-08-02T10:05:28;4.17;;;1.50;;
32639;SDS011;19049;52.524;11.468;2022-08-02T10:08:11;3.80;;;1.80;;
32639;SDS011;19049;52.524;11.468;2022-08-02T10:14:21;2.20;;;1.40;;
32639;SDS011;19049;52.524;11.468;2022-08-02T10:20:43;5.07;;;1.53;;
32639;SDS011;19049;52.524;11.468;2022-08-02T10:26:44;2.73;;;1.30;;
32639;SDS011;19049;52.524;11.468;2022-08-02T10:29:13;3.47;;;1.50;;
32639;SDS011;19049;52.524;11.468;2022-08-02T10:31:51;2.07;;;1.23;;
32639;SDS011;19049;52.524;11.468;2022-08-02T10:34:40;3.00;;;1.40;;
32639;SDS011;19049;52.524;11.468;2022-08-02T10:37:11;3.33;;;1.80;;
32639;SDS011;19049;52.524;11.468;2022-08-02T10:39:44;2.53;;;1.30;;
32639;SDS011;19049;52.524;11.468;2022-08-02T10:42:48;2.20;;;1.23;;
32639;SDS011;19049;52.524;11.468;2022-08-02T10:45:25;2.87;;;1.30;;
32639;SDS011;19049;52.524;11.468;2022-08-02T10:53:19;4.03;;;1.60;;
32639;SDS011;19049;52.524;11.468;2022-08-02T10:56:11;2.27;;;1.10;;
32639;SDS011;19049;52.524;11.468;2022-08-02T10:58:44;2.93;;;1.03;;
32639;SDS011;19049;52.524;11.468;2022-08-02T11:01:37;1.67;;;1.10;;
32639;SDS011;19049;52.524;11.468;2022-08-02T11:04:07;1.63;;;1.10;;
32639;SDS011;19049;52.524;11.468;2022-08-02T11:07:04;1.97;;;1.40;;
32639;SDS011;19049;52.524;11.468;2022-08-02T11:09:31;2.83;;;1.60;;
32639;SDS011;19049;52.524;11.468;2022-08-02T11:12:00;1.43;;;1.00;;
32639;SDS011;19049;52.524;11.468;2022-08-02T11:14:35;1.27;;;1.00;;
32639;SDS011;19049;52.524;11.468;2022-08-02T11:19:33;2.87;;;1.57;;
32639;SDS011;19049;52.524;11.468;2022-08-02T11:22:10;2.50;;;1.43;;
32639;SDS011;19049;52.524;11.468;2022-08-02T11:24:48;1.80;;;1.40;;
32639;SDS011;19049;52.524;11.468;2022-08-02T11:27:23;1.67;;;1.00;;
32639;SDS011;19049;52.524;11.468;2022-08-02T11:29:58;1.90;;;1.17;;
32639;SDS011;19049;52.524;11.468;2022-08-02T11:32:23;3.67;;;1.67;;
32639;SDS011;19049;52.524;11.468;2022-08-02T11:42:03;1.43;;;1.00;;
32639;SDS011;19049;52.524;11.468;2022-08-02T11:44:29;2.13;;;1.10;;
32639;SDS011;19049;52.524;11.468;2022-08-02T11:47:10;1.77;;;1.27;;
32639;SDS011;19049;52.524;11.468;2022-08-02T11:49:46;2.27;;;1.17;;
32639;SDS011;19049;52.524;11.468;2022-08-02T11:52:12;1.30;;;1.10;;
32639;SDS011;19049;52.524;11.468;2022-08-02T11:54:39;1.37;;;1.13;;
32639;SDS011;19049;52.524;11.468;2022-08-02T11:57:31;2.60;;;1.13;;
32639;SDS011;19049;52.524;11.468;2022-08-02T12:00:00;1.80;;;1.00;;
32639;SDS011;19049;52.524;11.468;2022-08-02T12:02:37;1.40;;;1.23;;
32639;SDS011;19049;52.524;11.468;2022-08-02T12:05:14;2.20;;;1.40;;
32639;SDS011;19049;52.524;11.468;2022-08-02T12:07:54;4.33;;;1.50;;
32639;SDS011;19049;52.524;11.468;2022-08-02T12:10:23;2.73;;;1.20;;
32639;SDS011;19049;52.524;11.468;2022-08-02T12:12:49;1.47;;;1.10;;
32639;SDS011;19049;52.524;11.468;2022-08-02T12:17:57;2.40;;;1.50;;
32639;SDS011;19049;52.524;11.468;2022-08-02T12:20:51;3.20;;;1.47;;
32639;SDS011;19049;52.524;11.468;2022-08-02T12:23:17;1.93;;;1.40;;
32639;SDS011;19049;52.524;11.468;2022-08-02T12:25:44;1.37;;;1.10;;
32639;SDS011;19049;52.524;11.468;2022-08-02T12:28:21;3.37;;;1.33;;
32639;SDS011;19049;52.524;11.468;2022-08-02T12:31:11;1.77;;;1.20;;
32639;SDS011;19049;52.524;11.468;2022-08-02T12:33:45;1.53;;;1.20;;
32639;SDS011;19049;52.524;11.468;2022-08-02T12:42:14;1.40;;;1.13;;
32639;SDS011;19049;52.524;11.468;2022-08-02T12:44:51;1.87;;;1.30;;
32639;SDS011;19049;52.524;11.468;2022-08-02T12:47:20;1.33;;;1.17;;
32639;SDS011;19049;52.524;11.468;2022-08-02T12:52:40;2.17;;;1.20;;
32639;SDS011;19049;52.524;11.468;2022-08-02T12:58:10;1.80;;;1.20;;
32639;SDS011;19049;52.524;11.468;2022-08-02T13:00:50;1.93;;;1.17;;
32639;SDS011;19049;52.524;11.468;2022-08-02T13:03:22;1.80;;;1.23;;
32639;SDS011;19049;52.524;11.468;2022-08-02T13:05:48;3.80;;;1.50;;
32639;SDS011;19049;52.524;11.468;2022-08-02T13:08:24;1.67;;;1.40;;
32639;SDS011;19049;52.524;11.468;2022-08-02T13:11:00;2.70;;;1.40;;
32639;SDS011;19049;52.524;11.468;2022-08-02T13:13:43;3.53;;;1.93;;
32639;SDS011;19049;52.524;11.468;2022-08-02T13:16:14;2.17;;;1.33;;
32639;SDS011;19049;52.524;11.468;2022-08-02T13:18:49;2.13;;;1.33;;
32639;SDS011;19049;52.524;11.468;2022-08-02T13:27:20;2.83;;;1.43;;
32639;SDS011;19049;52.524;11.468;2022-08-02T13:29:54;1.87;;;1.50;;
32639;SDS011;19049;52.524;11.468;2022-08-02T13:32:21;1.20;;;1.10;;
32639;SDS011;19049;52.524;11.468;2022-08-02T13:34:56;2.73;;;2.10;;
32639;SDS011;19049;52.524;11.468;2022-08-02T13:37:23;1.50;;;1.40;;
32639;SDS011;19049;52.524;11.468;2022-08-02T13:46:53;1.30;;;1.20;;
32639;SDS011;19049;52.524;11.468;2022-08-02T13:49:45;3.67;;;1.63;;
32639;SDS011;19049;52.524;11.468;2022-08-02T13:52:10;1.90;;;1.60;;
32639;SDS011;19049;52.524;11.468;2022-08-02T13:54:39;2.30;;;1.33;;
32639;SDS011;19049;52.524;11.468;2022-08-02T14:00:39;2.27;;;1.60;;
32639;SDS011;19049;52.524;11.468;2022-08-02T14:03:18;3.03;;;1.53;;
32639;SDS011;19049;52.524;11.468;2022-08-02T14:10:11;1.50;;;1.40;;
32639;SDS011;19049;52.524;11.468;2022-08-02T14:12:37;1.47;;;1.20;;
32639;SDS011;19049;52.524;11.468;2022-08-02T14:15:03;3.03;;;1.60;;
32639;SDS011;19049;52.524;11.468;2022-08-02T14:17:29;2.17;;;1.30;;
32639;SDS011;19049;52.524;11.468;2022-08-02T14:19:57;1.40;;;1.30;;
32639;SDS011;19049;52.524;11.468;2022-08-02T14:22:22;1.90;;;1.50;;
32639;SDS011;19049;52.524;11.468;2022-08-02T14:24:55;2.40;;;1.40;;
32639;SDS011;19049;52.524;11.468;2022-08-02T14:27:21;1.17;;;1.07;;
32639;SDS011;19049;52.524;11.468;2022-08-02T14:29:46;1.33;;;1.23;;
32639;SDS011;19049;52.524;11.468;2022-08-02T14:32:15;2.27;;;1.53;;
32639;SDS011;19049;52.524;11.468;2022-08-02T14:34:43;1.60;;;1.37;;
32639;SDS011;19049;52.524;11.468;2022-08-02T14:37:09;1.23;;;1.23;;
32639;SDS011;19049;52.524;11.468;2022-08-02T14:39:42;1.67;;;1.20;;
32639;SDS011;19049;52.524;11.468;2022-08-02T14:42:08;1.67;;;1.50;;
32639;SDS011;19049;52.524;11.468;2022-08-02T14:44:34;1.70;;;1.60;;
32639;SDS011;19049;52.524;11.468;2022-08-02T14:46:59;1.80;;;1.40;;
32639;SDS011;19049;52.524;11.468;2022-08-02T14:49:29;1.20;;;1.10;;
32639;SDS011;19049;52.524;11.468;2022-08-02T14:51:58;1.50;;;1.40;;
32639;SDS011;19049;52.524;11.468;2022-08-02T14:54:38;1.50;;;1.40;;
32639;SDS011;19049;52.524;11.468;2022-08-02T14:57:05;2.20;;;1.73;;
32639;SDS011;19049;52.524;11.468;2022-08-02T14:59:33;1.40;;;1.30;;
32639;SDS011;19049;52.524;11.468;2022-08-02T15:01:59;1.50;;;1.40;;
32639;SDS011;19049;52.524;11.468;2022-08-02T15:04:25;1.60;;;1.50;;
32639;SDS011;19049;52.524;11.468;2022-08-02T15:07:01;1.73;;;1.60;;
32639;SDS011;19049;52.524;11.468;2022-08-02T15:09:29;1.13;;;1.10;;
32639;SDS011;19049;52.524;11.468;2022-08-02T15:11:55;1.33;;;1.20;;
32639;SDS011;19049;52.524;11.468;2022-08-02T15:14:23;1.90;;;1.70;;
32639;SDS011;19049;52.524;11.468;2022-08-02T15:17:12;1.53;;;1.40;;
32639;SDS011;19049;52.524;11.468;2022-08-02T15:20:05;1.73;;;1.63;;
32639;SDS011;19049;52.524;11.468;2022-08-02T15:25:55;1.33;;;1.23;;
32639;SDS011;19049;52.524;11.468;2022-08-02T15:28:23;1.60;;;1.50;;
32639;SDS011;19049;52.524;11.468;2022-08-02T15:31:05;1.83;;;1.50;;
32639;SDS011;19049;52.524;11.468;2022-08-02T15:33:31;1.40;;;1.30;;
32639;SDS011;19049;52.524;11.468;2022-08-02T15:35:59;2.70;;;1.40;;
32639;SDS011;19049;52.524;11.468;2022-08-02T15:38:38;2.00;;;1.70;;
32639;SDS011;19049;52.524;11.468;2022-08-02T15:41:06;1.40;;;1.30;;
32639;SDS011;19049;52.524;11.468;2022-08-02T15:43:40;1.83;;;1.40;;
32639;SDS011;19049;52.524;11.468;2022-08-02T15:46:07;1.47;;;1.30;;
32639;SDS011;19049;52.524;11.468;2022-08-02T15:48:43;1.93;;;1.60;;
32639;SDS011;19049;52.524;11.468;2022-08-02T15:51:09;1.40;;;1.30;;
32639;SDS011;19049;52.524;11.468;2022-08-02T15:53:34;1.70;;;1.47;;
32639;SDS011;19049;52.524;11.468;2022-08-02T15:56:00;1.40;;;1.30;;
32639;SDS011;19049;52.524;11.468;2022-08-02T15:58:28;2.00;;;1.30;;
32639;SDS011;19049;52.524;11.468;2022-08-02T16:00:54;1.60;;;1.50;;
32639;SDS011;19049;52.524;11.468;2022-08-02T16:03:19;1.43;;;1.33;;
32639;SDS011;19049;52.524;11.468;2022-08-02T16:05:45;1.60;;;1.50;;
32639;SDS011;19049;52.524;11.468;2022-08-02T16:08:11;2.07;;;1.63;;
32639;SDS011;19049;52.524;11.468;2022-08-02T16:10:41;1.70;;;1.60;;
32639;SDS011;19049;52.524;11.468;2022-08-02T16:13:10;1.50;;;1.40;;
32639;SDS011;19049;52.524;11.468;2022-08-02T16:15:55;1.97;;;1.50;;
32639;SDS011;19049;52.524;11.468;2022-08-02T16:18:22;1.47;;;1.37;;
32639;SDS011;19049;52.524;11.468;2022-08-02T16:20:55;2.10;;;1.70;;
32639;SDS011;19049;52.524;11.468;2022-08-02T16:23:21;1.40;;;1.30;;
32639;SDS011;19049;52.524;11.468;2022-08-02T16:25:50;1.40;;;1.30;;
32639;SDS011;19049;52.524;11.468;2022-08-02T16:28:15;1.63;;;1.50;;
32639;SDS011;19049;52.524;11.468;2022-08-02T16:30:43;1.53;;;1.40;;
32639;SDS011;19049;52.524;11.468;2022-08-02T16:33:11;1.60;;;1.50;;
32639;SDS011;19049;52.524;11.468;2022-08-02T16:35:37;1.60;;;1.50;;
32639;SDS011;19049;52.524;11.468;2022-08-02T16:38:05;2.13;;;1.40;;
32639;SDS011;19049;52.524;11.468;2022-08-02T16:40:31;1.47;;;1.37;;
32639;SDS011;19049;52.524;11.468;2022-08-02T16:43:02;2.13;;;1.93;;
32639;SDS011;19049;52.524;11.468;2022-08-02T16:45:28;2.53;;;2.30;;
32639;SDS011;19049;52.524;11.468;2022-08-02T16:47:56;1.80;;;1.70;;
32639;SDS011;19049;52.524;11.468;2022-08-02T16:50:22;1.70;;;1.60;;
32639;SDS011;19049;52.524;11.468;2022-08-02T16:52:51;2.17;;;1.60;;
32639;SDS011;19049;52.524;11.468;2022-08-02T16:55:19;1.50;;;1.40;;
32639;SDS011;19049;52.524;11.468;2022-08-02T16:57:45;1.80;;;1.70;;
32639;SDS011;19049;52.524;11.468;2022-08-02T17:00:11;2.77;;;1.60;;
32639;SDS011;19049;52.524;11.468;2022-08-02T17:02:38;2.60;;;1.70;;
32639;SDS011;19049;52.524;11.468;2022-08-02T17:05:07;1.77;;;1.40;;
32639;SDS011;19049;52.524;11.468;2022-08-02T17:07:41;1.47;;;1.37;;
32639;SDS011;19049;52.524;11.468;2022-08-02T17:10:07;1.47;;;1.37;;
32639;SDS011;19049;52.524;11.468;2022-08-02T17:12:35;1.70;;;1.60;;
32639;SDS011;19049;52.524;11.468;2022-08-02T17:15:04;1.60;;;1.50;;
32639;SDS011;19049;52.524;11.468;2022-08-02T17:17:31;1.27;;;1.20;;
32639;SDS011;19049;52.524;11.468;2022-08-02T17:19:59;1.20;;;1.20;;
32639;SDS011;19049;52.524;11.468;2022-08-02T17:22:26;1.30;;;1.20;;
32639;SDS011;19049;52.524;11.468;2022-08-02T17:24:53;1.73;;;1.60;;
32639;SDS011;19049;52.524;11.468;2022-08-02T17:27:19;2.90;;;1.87;;